createdAt,value
2019-03-22T00:00:13.711Z,23.35
2019-03-22T00:02:42.323Z,16.97
2019-03-22T00:05:11.242Z,15.17
2019-03-22T00:07:39.790Z,13.40
2019-03-22T00:10:08.429Z,15.38
2019-03-22T00:12:36.997Z,14.40
2019-03-22T00:15:07.301Z,26.27
2019-03-22T00:17:35.863Z,33.77
2019-03-22T00:20:07.305Z,29.27
2019-03-22T00:22:35.849Z,22.10
2019-03-22T00:25:06.095Z,17.57
2019-03-22T00:27:34.673Z,17.75
2019-03-22T00:30:04.911Z,16.35
2019-03-22T00:32:33.457Z,17.27
2019-03-22T00:35:02.045Z,20.08
2019-03-22T00:37:30.657Z,16.52
2019-03-22T00:39:59.147Z,15.53
2019-03-22T00:42:27.692Z,22.17
2019-03-22T00:44:56.198Z,19.12
2019-03-22T00:47:24.760Z,25.95
2019-03-22T00:49:53.326Z,30.30
2019-03-22T00:52:21.869Z,23.90
2019-03-22T00:54:50.360Z,16.97
2019-03-22T00:57:27.989Z,13.83
2019-03-22T00:59:49.117Z,12.88
2019-03-22T01:02:17.593Z,12.43
2019-03-22T01:04:46.089Z,12.80
2019-03-22T01:07:14.629Z,11.77
2019-03-22T01:09:43.188Z,14.38
2019-03-22T01:12:11.741Z,13.20
2019-03-22T01:14:40.313Z,10.95
2019-03-22T01:17:09.197Z,12.77
2019-03-22T01:19:37.766Z,13.30
2019-03-22T01:22:06.381Z,13.00
2019-03-22T01:24:34.950Z,12.60
2019-03-22T01:27:03.501Z,13.63
2019-03-22T01:29:32.073Z,12.98
2019-03-22T01:32:00.558Z,12.50
2019-03-22T01:34:29.113Z,11.25
2019-03-22T01:36:58.642Z,11.83
2019-03-22T01:39:27.285Z,10.60
2019-03-22T01:41:55.779Z,10.27
2019-03-22T01:44:25.245Z,10.20
2019-03-22T01:46:53.829Z,13.95
2019-03-22T01:49:22.295Z,12.65
2019-03-22T01:51:50.861Z,13.90
2019-03-22T01:54:19.608Z,16.00
2019-03-22T01:56:48.168Z,15.55
2019-03-22T01:59:16.704Z,13.23
2019-03-22T02:01:45.202Z,13.87
2019-03-22T02:04:13.770Z,10.60
2019-03-22T02:06:42.341Z,11.20
2019-03-22T02:09:11.176Z,11.12
2019-03-22T02:11:39.725Z,11.25
2019-03-22T02:14:08.204Z,11.45
2019-03-22T02:16:36.749Z,11.27
2019-03-22T02:19:05.296Z,11.65
2019-03-22T02:21:34.524Z,10.95
2019-03-22T02:24:02.997Z,11.77
2019-03-22T02:26:31.561Z,10.00
2019-03-22T02:29:00.357Z,14.07
2019-03-22T02:31:28.935Z,12.25
2019-03-22T02:33:57.478Z,11.28
2019-03-22T02:36:26.055Z,10.20
2019-03-22T02:38:54.604Z,11.73
2019-03-22T02:41:23.170Z,11.18
2019-03-22T02:43:54.565Z,13.75
2019-03-22T02:46:21.928Z,23.93
2019-03-22T02:48:50.485Z,13.70
2019-03-22T02:51:19.057Z,14.30
2019-03-22T02:53:47.607Z,11.48
2019-03-22T02:56:16.257Z,13.70
2019-03-22T02:58:44.847Z,12.60
2019-03-22T03:01:13.405Z,11.30
2019-03-22T03:03:41.959Z,12.63
2019-03-22T03:06:10.454Z,12.45
2019-03-22T03:08:39.007Z,11.47
2019-03-22T03:11:07.619Z,12.07
2019-03-22T03:13:36.153Z,11.48
2019-03-22T03:16:04.638Z,13.63
2019-03-22T03:18:33.190Z,13.20
2019-03-22T03:21:01.755Z,11.67
2019-03-22T03:23:30.297Z,11.28
2019-03-22T03:25:58.842Z,10.95
2019-03-22T03:28:36.829Z,12.55
2019-03-22T03:30:57.858Z,12.23
2019-03-22T03:33:26.710Z,12.93
2019-03-22T03:35:55.517Z,12.65
2019-03-22T03:38:24.081Z,14.17
2019-03-22T03:40:52.657Z,12.90
2019-03-22T03:43:21.221Z,12.40
2019-03-22T03:45:50.019Z,10.10
2019-03-22T03:48:18.587Z,10.80
2019-03-22T03:50:47.137Z,14.17
2019-03-22T03:53:15.637Z,12.50
2019-03-22T03:55:44.194Z,13.55
2019-03-22T03:58:12.760Z,13.55
2019-03-22T04:00:41.306Z,14.33
2019-03-22T04:03:09.864Z,13.20
2019-03-22T04:05:38.417Z,12.37
2019-03-22T04:08:07.070Z,12.05
2019-03-22T04:10:35.792Z,11.88
2019-03-22T04:13:04.434Z,13.13
2019-03-22T04:15:33.024Z,12.40
2019-03-22T04:18:01.599Z,13.63
2019-03-22T04:20:30.145Z,15.53
2019-03-22T04:22:58.645Z,11.70
2019-03-22T04:25:27.196Z,12.95
2019-03-22T04:27:55.769Z,15.53
2019-03-22T04:30:24.315Z,15.70
2019-03-22T04:32:53.810Z,17.17
2019-03-22T04:35:22.356Z,15.93
2019-03-22T04:37:50.849Z,15.00
2019-03-22T04:40:26.803Z,16.87
2019-03-22T04:42:55.510Z,14.33
2019-03-22T04:45:26.007Z,15.28
2019-03-22T04:48:03.421Z,14.40
2019-03-22T04:50:34.604Z,14.98
2019-03-22T04:53:03.900Z,13.28
2019-03-22T04:55:34.989Z,14.83
2019-03-22T04:58:04.954Z,15.07
2019-03-22T05:00:35.268Z,15.07
2019-03-22T05:03:05.678Z,14.40
2019-03-22T05:05:34.381Z,16.97
2019-03-22T05:08:04.325Z,16.23
2019-03-22T05:10:34.833Z,20.53
2019-03-22T05:13:04.052Z,14.05
2019-03-22T05:15:33.778Z,14.80
2019-03-22T05:18:03.193Z,13.18
2019-03-22T05:20:33.786Z,15.80
2019-03-22T05:23:03.520Z,13.53
2019-03-22T05:25:32.908Z,15.32
2019-03-22T05:28:03.317Z,14.30
2019-03-22T05:30:55.816Z,13.83
2019-03-22T05:33:24.383Z,13.63
2019-03-22T05:35:52.929Z,14.05
2019-03-22T05:38:21.486Z,20.87
2019-03-22T05:40:50.050Z,15.53
2019-03-22T05:43:18.521Z,16.97
2019-03-22T05:45:47.030Z,14.63
2019-03-22T05:48:15.501Z,14.70
2019-03-22T05:50:44.068Z,16.27
2019-03-22T05:53:12.925Z,13.03
2019-03-22T05:55:41.492Z,15.27
2019-03-22T05:58:09.978Z,13.13
2019-03-22T06:00:38.543Z,15.93
2019-03-22T06:03:07.093Z,17.55
2019-03-22T06:05:35.665Z,14.10
2019-03-22T06:08:07.647Z,15.97
2019-03-22T06:10:36.166Z,15.30
2019-03-22T06:13:04.725Z,18.20
2019-03-22T06:15:33.416Z,13.35
2019-03-22T06:18:01.966Z,15.58
2019-03-22T06:20:30.482Z,15.27
2019-03-22T06:22:59.048Z,13.57
2019-03-22T06:25:27.617Z,17.60
2019-03-22T06:27:56.157Z,14.55
2019-03-22T06:30:24.654Z,17.50
2019-03-22T06:32:53.278Z,18.23
2019-03-22T06:35:21.844Z,16.70
2019-03-22T06:37:50.307Z,17.27
2019-03-22T06:40:18.947Z,14.63
2019-03-22T06:42:47.419Z,16.48
2019-03-22T06:45:16.084Z,14.75
2019-03-22T06:47:44.629Z,14.03
2019-03-22T06:50:13.188Z,13.22
2019-03-22T06:52:41.951Z,14.68
2019-03-22T06:55:10.653Z,14.27
2019-03-22T06:57:39.138Z,15.93
2019-03-22T07:00:09.921Z,12.70
2019-03-22T07:02:38.461Z,15.03
2019-03-22T07:05:07.242Z,12.40
2019-03-22T07:07:35.792Z,14.47
2019-03-22T07:10:06.242Z,17.20
2019-03-22T07:12:37.909Z,17.23
2019-03-22T07:15:25.741Z,15.63
2019-03-22T07:17:54.263Z,17.15
2019-03-22T07:20:23.148Z,17.60
2019-03-22T07:22:51.730Z,15.90
2019-03-22T07:25:20.303Z,15.35
2019-03-22T07:27:48.851Z,19.30
2019-03-22T07:30:19.367Z,14.13
2019-03-22T07:32:48.022Z,15.32
2019-03-22T07:35:16.591Z,13.60
2019-03-22T07:37:45.137Z,14.87
2019-03-22T07:40:14.083Z,16.03
2019-03-22T07:42:42.969Z,14.50
2019-03-22T07:45:12.285Z,14.50
2019-03-22T07:47:40.766Z,18.70
2019-03-22T07:50:12.137Z,14.93
2019-03-22T07:52:40.638Z,15.85
2019-03-22T07:55:30.091Z,16.77
2019-03-22T07:57:58.623Z,17.67
2019-03-22T08:00:31.173Z,19.02
2019-03-22T08:02:57.484Z,16.20
2019-03-22T08:05:26.051Z,18.12
2019-03-22T08:07:56.139Z,17.30
2019-03-22T08:10:24.848Z,15.90
2019-03-22T08:12:53.424Z,14.98
2019-03-22T08:15:30.361Z,15.87
2019-03-22T08:17:59.225Z,14.60
2019-03-22T08:20:28.030Z,15.37
2019-03-22T08:22:56.600Z,14.87
2019-03-22T08:25:25.149Z,15.55
2019-03-22T08:27:53.743Z,15.93
2019-03-22T08:30:22.361Z,15.77
2019-03-22T08:32:50.967Z,15.67
2019-03-22T08:35:19.489Z,13.60
2019-03-22T08:37:52.840Z,14.55
2019-03-22T08:40:18.281Z,14.20
2019-03-22T08:42:46.857Z,14.87
2019-03-22T08:45:15.578Z,15.40
2019-03-22T08:47:44.157Z,13.70
2019-03-22T08:50:13.315Z,12.60
2019-03-22T08:52:41.888Z,15.23
2019-03-22T08:55:10.605Z,14.73
2019-03-22T08:57:39.173Z,14.47
2019-03-22T09:00:10.104Z,15.32
2019-03-22T09:02:38.711Z,16.05
2019-03-22T09:05:07.506Z,15.03
2019-03-22T09:07:36.098Z,14.80
2019-03-22T09:10:06.892Z,15.33
2019-03-22T09:12:35.459Z,16.10
2019-03-22T09:15:08.176Z,14.90
2019-03-22T09:17:36.958Z,15.63
2019-03-22T09:20:09.873Z,14.90
2019-03-22T09:22:38.772Z,16.20
2019-03-22T09:25:08.438Z,15.43
2019-03-22T09:27:37.103Z,15.73
2019-03-22T09:30:08.539Z,16.13
2019-03-22T09:32:37.114Z,16.73
2019-03-22T09:35:07.222Z,16.00
2019-03-22T09:37:35.845Z,15.48
2019-03-22T09:40:08.431Z,15.45
2019-03-22T09:42:36.993Z,16.45
2019-03-22T09:45:07.573Z,16.87
2019-03-22T09:47:36.295Z,16.10
2019-03-22T09:50:10.771Z,16.63
2019-03-22T09:52:39.316Z,19.30
2019-03-22T09:55:13.849Z,18.63
2019-03-22T09:57:38.470Z,19.87
2019-03-22T10:00:10.407Z,19.23
2019-03-22T10:02:39.347Z,17.48
2019-03-22T10:05:08.068Z,18.20
2019-03-22T10:07:36.639Z,17.42
2019-03-22T10:10:06.647Z,18.27
2019-03-22T10:12:35.214Z,20.60
2019-03-22T10:15:05.162Z,17.40
2019-03-22T10:17:33.737Z,17.23
2019-03-22T10:20:02.316Z,17.30
2019-03-22T10:22:30.852Z,17.50
2019-03-22T10:24:59.455Z,18.35
2019-03-22T10:27:28.034Z,18.85
2019-03-22T10:29:56.564Z,17.73
2019-03-22T10:32:25.140Z,18.15
2019-03-22T10:34:53.656Z,18.70
2019-03-22T10:37:22.263Z,17.37
2019-03-22T10:39:51.098Z,17.95
2019-03-22T10:42:19.685Z,19.55
2019-03-22T10:44:48.326Z,17.57
2019-03-22T10:47:18.184Z,19.15
2019-03-22T10:49:47.016Z,16.75
2019-03-22T10:52:15.553Z,18.03
2019-03-22T10:54:44.147Z,18.32
2019-03-22T10:57:12.686Z,20.63
2019-03-22T10:59:41.270Z,18.55
2019-03-22T11:02:09.964Z,19.40
2019-03-22T11:04:38.578Z,18.60
2019-03-22T11:07:07.229Z,16.82
2019-03-22T11:09:35.735Z,17.37
2019-03-22T11:12:11.924Z,18.37
2019-03-22T11:14:34.454Z,16.97
2019-03-22T11:17:03.092Z,17.77
2019-03-22T11:19:31.973Z,17.12
2019-03-22T11:22:00.458Z,17.50
2019-03-22T11:24:29.051Z,16.82
2019-03-22T11:26:57.649Z,16.70
2019-03-22T11:29:26.242Z,17.37
2019-03-22T11:31:54.789Z,16.97
2019-03-22T11:34:23.289Z,18.32
2019-03-22T11:36:51.841Z,17.40
2019-03-22T11:39:20.436Z,16.33
2019-03-22T11:41:49.073Z,16.93
2019-03-22T11:44:17.641Z,15.57
2019-03-22T11:46:46.233Z,17.37
2019-03-22T11:49:14.795Z,17.70
2019-03-22T11:51:43.306Z,16.97
2019-03-22T11:54:11.883Z,16.27
2019-03-22T11:56:40.441Z,17.00
2019-03-22T11:59:09.133Z,19.82
2019-03-22T12:01:37.705Z,16.93
2019-03-22T12:04:06.210Z,17.60
2019-03-22T12:06:34.937Z,17.43
2019-03-22T12:09:05.013Z,19.73
2019-03-22T12:11:33.517Z,20.17
2019-03-22T12:14:02.091Z,19.83
2019-03-22T12:16:30.666Z,19.67
2019-03-22T12:18:59.266Z,19.00
2019-03-22T12:21:27.842Z,18.77
2019-03-22T12:23:56.385Z,20.10
2019-03-22T12:26:25.043Z,20.53
2019-03-22T12:28:53.587Z,20.40
2019-03-22T12:31:22.159Z,21.07
2019-03-22T12:33:50.696Z,20.62
2019-03-22T12:36:19.197Z,21.30
2019-03-22T12:38:47.753Z,20.72
2019-03-22T12:41:16.331Z,19.87
2019-03-22T12:43:44.981Z,19.73
2019-03-22T12:46:13.498Z,19.77
2019-03-22T12:48:42.046Z,19.73
2019-03-22T12:51:10.548Z,19.50
2019-03-22T12:53:39.026Z,18.45
2019-03-22T12:56:07.766Z,17.43
2019-03-22T12:58:36.314Z,20.17
2019-03-22T13:01:05.086Z,19.07
2019-03-22T13:03:33.688Z,19.23
2019-03-22T13:06:02.369Z,19.10
2019-03-22T13:08:31.002Z,18.60
2019-03-22T13:11:59.364Z,18.82
2019-03-22T13:14:27.960Z,19.20
2019-03-22T13:16:56.519Z,19.23
2019-03-22T13:19:25.003Z,19.23
2019-03-22T13:21:53.586Z,18.43
2019-03-22T13:24:22.146Z,18.00
2019-03-22T13:26:50.742Z,18.00
2019-03-22T13:29:19.250Z,17.50
2019-03-22T13:31:47.832Z,17.50
2019-03-22T13:34:16.332Z,16.77
2019-03-22T13:36:44.916Z,15.60
2019-03-22T13:39:13.477Z,16.27
2019-03-22T13:41:41.981Z,15.98
2019-03-22T13:44:11.414Z,17.27
2019-03-22T13:46:40.781Z,16.63
2019-03-22T13:49:09.519Z,15.50
2019-03-22T13:51:38.107Z,15.00
2019-03-22T13:54:06.709Z,14.20
2019-03-22T13:56:35.268Z,13.90
2019-03-22T13:59:03.845Z,15.32
2019-03-22T14:01:32.360Z,14.60
2019-03-22T14:04:00.851Z,14.97
2019-03-22T14:06:29.901Z,15.38
2019-03-22T14:08:58.445Z,13.40
2019-03-22T14:11:27.044Z,13.17
2019-03-22T14:13:55.669Z,12.80
2019-03-22T14:16:24.318Z,13.22
2019-03-22T14:18:53.015Z,14.53
2019-03-22T14:21:21.598Z,15.53
2019-03-22T14:23:50.147Z,15.55
2019-03-22T14:26:19.015Z,15.20
2019-03-22T14:28:47.656Z,15.10
2019-03-22T14:31:16.242Z,15.55
2019-03-22T14:33:44.790Z,19.20
2019-03-22T14:36:13.349Z,16.77
2019-03-22T14:38:44.155Z,15.40
2019-03-22T14:41:12.120Z,15.17
2019-03-22T14:43:40.649Z,15.30
2019-03-22T14:46:09.428Z,13.55
2019-03-22T14:48:37.999Z,12.50
2019-03-22T14:51:06.645Z,11.37
2019-03-22T14:53:35.158Z,11.20
2019-03-22T14:56:03.795Z,14.53
2019-03-22T14:58:32.387Z,12.60
2019-03-22T15:01:00.958Z,12.93
2019-03-22T15:03:29.541Z,13.87
2019-03-22T15:05:58.427Z,14.07
2019-03-22T15:08:27.259Z,12.88
2019-03-22T15:10:55.884Z,13.70
2019-03-22T15:13:44.522Z,14.50
2019-03-22T15:16:30.819Z,13.85
2019-03-22T15:19:10.137Z,13.80
2019-03-22T15:21:46.165Z,15.00
2019-03-22T15:24:32.757Z,14.07
2019-03-22T15:27:02.914Z,13.40
2019-03-22T15:29:44.850Z,13.80
2019-03-22T15:32:30.377Z,14.30
2019-03-22T15:35:16.872Z,15.18
2019-03-22T15:38:02.590Z,14.57
2019-03-22T15:40:31.136Z,15.88
2019-03-22T15:42:59.720Z,15.60
2019-03-22T15:45:30.198Z,15.68
2019-03-22T15:47:58.659Z,15.70
2019-03-22T15:50:27.245Z,15.60
2019-03-22T15:52:55.923Z,15.53
2019-03-22T15:55:24.484Z,15.65
2019-03-22T15:57:53.113Z,15.90
2019-03-22T16:00:21.822Z,16.10
2019-03-22T16:02:50.378Z,15.40
2019-03-22T16:05:19.282Z,15.40
2019-03-22T16:07:47.969Z,15.18
2019-03-22T16:10:16.663Z,14.63
2019-03-22T16:12:45.247Z,16.30
2019-03-22T16:15:14.313Z,15.98
2019-03-22T16:17:42.907Z,15.93
2019-03-22T16:20:14.108Z,15.65
2019-03-22T16:22:42.748Z,16.30
2019-03-22T16:25:12.036Z,15.37
2019-03-22T16:27:41.725Z,15.83
2019-03-22T16:30:13.500Z,17.17
2019-03-22T16:32:42.173Z,17.00
2019-03-22T16:35:11.096Z,16.63
2019-03-22T16:37:40.145Z,17.13
2019-03-22T16:40:10.893Z,19.20
2019-03-22T16:42:39.505Z,17.87
2019-03-22T16:45:10.313Z,17.93
2019-03-22T16:47:38.937Z,18.07
2019-03-22T16:50:10.576Z,18.37
2019-03-22T16:52:39.058Z,18.87
2019-03-22T16:55:09.185Z,17.40
2019-03-22T16:57:37.662Z,19.40
2019-03-22T17:00:09.568Z,18.40
2019-03-22T17:02:38.202Z,17.70
2019-03-22T17:05:08.309Z,18.30
2019-03-22T17:07:36.857Z,18.70
2019-03-22T17:10:09.774Z,18.00
2019-03-22T17:12:38.256Z,19.27
2019-03-22T17:15:07.263Z,19.75
2019-03-22T17:17:36.200Z,18.77
2019-03-22T17:20:06.337Z,19.17
2019-03-22T17:22:34.881Z,19.50
2019-03-22T17:25:03.945Z,19.57
2019-03-22T17:27:32.509Z,19.52
2019-03-22T17:30:01.086Z,20.15
2019-03-22T17:32:29.633Z,20.05
2019-03-22T17:34:58.165Z,20.57
2019-03-22T17:37:26.709Z,21.37
2019-03-22T17:39:55.290Z,21.20
2019-03-22T17:42:23.839Z,21.83
2019-03-22T17:44:52.427Z,22.00
2019-03-22T17:47:20.969Z,22.90
2019-03-22T17:49:49.530Z,23.70
2019-03-22T17:52:18.149Z,23.85
2019-03-22T17:54:46.649Z,25.15
2019-03-22T17:57:18.973Z,27.10
2019-03-22T17:59:45.348Z,25.17
2019-03-22T18:02:14.291Z,24.40
2019-03-22T18:04:42.853Z,24.17
2019-03-22T18:07:11.328Z,24.53
2019-03-22T18:09:39.889Z,27.10
2019-03-22T18:12:08.365Z,25.20
2019-03-22T18:14:37.005Z,23.83
2019-03-22T18:17:05.552Z,27.07
2019-03-22T18:19:34.155Z,26.23
2019-03-22T18:22:02.696Z,26.87
2019-03-22T18:24:31.193Z,26.13
2019-03-22T18:26:59.673Z,27.37
2019-03-22T18:29:28.240Z,24.60
2019-03-22T18:31:56.714Z,26.33
2019-03-22T18:34:33.892Z,26.50
2019-03-22T18:36:55.523Z,26.87
2019-03-22T18:39:24.187Z,28.50
2019-03-22T18:41:52.740Z,25.75
2019-03-22T18:44:21.302Z,24.40
2019-03-22T18:46:49.853Z,29.20
2019-03-22T18:49:18.345Z,31.97
2019-03-22T18:51:46.909Z,28.80
2019-03-22T18:54:15.400Z,28.03
2019-03-22T18:56:43.876Z,31.65
2019-03-22T18:59:12.349Z,26.23
2019-03-22T19:01:41.348Z,31.27
2019-03-22T19:04:09.839Z,28.27
2019-03-22T19:06:38.412Z,31.25
2019-03-22T19:09:08.197Z,29.67
2019-03-22T19:11:36.790Z,29.03
2019-03-22T19:14:05.403Z,33.30
2019-03-22T19:16:33.964Z,32.63
2019-03-22T19:19:02.443Z,31.17
2019-03-22T19:21:31.014Z,32.67
2019-03-22T19:23:59.489Z,35.43
2019-03-22T19:26:27.990Z,32.43
2019-03-22T19:28:56.614Z,32.67
2019-03-22T19:31:25.187Z,32.78
2019-03-22T19:33:53.737Z,31.70
2019-03-22T19:36:22.310Z,33.53
2019-03-22T19:38:50.859Z,33.00
2019-03-22T19:41:19.423Z,32.30
2019-03-22T19:43:48.170Z,31.27
2019-03-22T19:46:16.745Z,32.37
2019-03-22T19:48:45.305Z,32.45
2019-03-22T19:51:13.880Z,31.50
2019-03-22T19:53:42.416Z,31.87
2019-03-22T19:56:10.993Z,31.80
2019-03-22T19:58:39.541Z,31.87
2019-03-22T20:01:08.104Z,33.33
2019-03-22T20:03:36.591Z,33.70
2019-03-22T20:06:05.160Z,32.73
2019-03-22T20:08:33.641Z,35.20
2019-03-22T20:11:02.221Z,36.20
2019-03-22T20:13:30.729Z,34.87
2019-03-22T20:15:59.272Z,32.73
2019-03-22T20:18:27.835Z,36.48
2019-03-22T20:20:56.412Z,34.90
2019-03-22T20:23:24.974Z,37.83
2019-03-22T20:25:53.532Z,38.20
2019-03-22T20:28:22.016Z,34.78
2019-03-22T20:30:50.624Z,39.95
2019-03-22T20:33:19.133Z,36.68
2019-03-22T20:35:47.636Z,35.13
2019-03-22T20:38:16.419Z,34.50
2019-03-22T20:40:45.402Z,36.37
2019-03-22T20:43:14.141Z,39.80
2019-03-22T20:45:42.617Z,35.13
2019-03-22T20:48:11.181Z,32.53
2019-03-22T20:50:39.933Z,38.35
2019-03-22T20:53:08.762Z,36.15
2019-03-22T20:55:37.313Z,34.78
2019-03-22T20:58:05.923Z,30.40
2019-03-22T21:00:34.434Z,36.98
2019-03-22T21:03:02.945Z,31.48
2019-03-22T21:05:31.494Z,30.32
2019-03-22T21:08:00.057Z,30.67
2019-03-22T21:10:28.541Z,33.20
2019-03-22T21:12:57.120Z,35.60
2019-03-22T21:15:25.666Z,34.03
2019-03-22T21:17:54.251Z,31.70
2019-03-22T21:20:22.803Z,32.65
2019-03-22T21:22:51.294Z,32.70
2019-03-22T21:25:19.760Z,30.10
2019-03-22T21:27:48.270Z,36.80
2019-03-22T21:30:16.989Z,33.83
2019-03-22T21:32:45.981Z,32.13
2019-03-22T21:35:22.413Z,30.12
2019-03-22T21:37:45.419Z,28.30
2019-03-22T21:40:14.229Z,33.60
2019-03-22T21:42:42.722Z,36.60
2019-03-22T21:45:11.888Z,31.30
2019-03-22T21:47:40.445Z,32.97
2019-03-22T21:50:10.074Z,28.95
2019-03-22T21:52:38.715Z,32.57
2019-03-22T21:55:08.396Z,29.48
2019-03-22T21:57:37.132Z,28.90
2019-03-22T22:00:10.823Z,30.00
2019-03-22T22:02:39.394Z,32.75
2019-03-22T22:05:08.789Z,27.45
2019-03-22T22:07:37.372Z,30.67
2019-03-22T22:10:08.158Z,28.83
2019-03-22T22:12:36.654Z,30.93
2019-03-22T22:15:08.572Z,30.97
2019-03-22T22:17:39.197Z,30.60
2019-03-22T22:20:07.650Z,30.07
2019-03-22T22:22:36.145Z,31.85
2019-03-22T22:25:06.429Z,29.37
2019-03-22T22:27:34.998Z,30.65
2019-03-22T22:30:05.570Z,29.40
2019-03-22T22:32:34.142Z,29.50
2019-03-22T22:35:02.757Z,34.70
2019-03-22T22:37:31.327Z,31.93
2019-03-22T22:39:59.874Z,28.35
2019-03-22T22:42:28.429Z,30.30
2019-03-22T22:44:56.933Z,30.00
2019-03-22T22:47:25.485Z,30.77
2019-03-22T22:49:55.076Z,30.70
2019-03-22T22:52:23.630Z,32.40
2019-03-22T22:54:52.132Z,29.70
2019-03-22T22:57:20.683Z,30.95
2019-03-22T22:59:49.178Z,29.25
2019-03-22T23:02:17.651Z,31.60
2019-03-22T23:04:46.151Z,32.33
2019-03-22T23:07:14.766Z,33.67
2019-03-22T23:09:43.262Z,34.20
2019-03-22T23:12:12.202Z,34.33
2019-03-22T23:14:40.700Z,33.27
2019-03-22T23:17:09.247Z,32.98
2019-03-22T23:19:37.877Z,33.27
2019-03-22T23:22:06.433Z,34.87
2019-03-22T23:24:34.924Z,33.18
2019-03-22T23:27:03.400Z,32.53
2019-03-22T23:29:31.907Z,38.30
2019-03-22T23:32:00.442Z,33.57
2019-03-22T23:34:29.017Z,38.13
2019-03-22T23:36:57.500Z,33.48
2019-03-22T23:39:26.066Z,32.63
2019-03-22T23:41:54.658Z,31.83
2019-03-22T23:44:23.161Z,31.80
2019-03-22T23:46:51.704Z,30.77
2019-03-22T23:49:20.750Z,34.80
2019-03-22T23:51:49.310Z,36.30
2019-03-22T23:54:17.917Z,33.70
2019-03-22T23:56:46.468Z,32.77
2019-03-22T23:59:15.057Z,32.17
